createdAt,value
2023-03-28T00:02:16.629Z,3.05
2023-03-28T00:04:44.023Z,3.38
2023-03-28T00:07:11.757Z,3.05
2023-03-28T00:09:39.242Z,3.40
2023-03-28T00:12:06.778Z,2.90
2023-03-28T00:14:35.419Z,3.78
2023-03-28T00:17:02.763Z,4.22
2023-03-28T00:19:32.918Z,3.92
2023-03-28T00:22:00.771Z,3.10
2023-03-28T00:24:28.764Z,3.75
2023-03-28T00:27:00.292Z,3.80
2023-03-28T00:29:29.916Z,3.60
2023-03-28T00:31:57.259Z,4.13
2023-03-28T00:34:24.789Z,3.58
2023-03-28T00:36:53.899Z,3.38
2023-03-28T00:39:21.182Z,3.67
2023-03-28T00:41:49.238Z,3.40
2023-03-28T00:44:35.276Z,4.53
2023-03-28T00:47:02.605Z,3.25
2023-03-28T00:49:30.041Z,3.78
2023-03-28T00:52:00.037Z,3.65
2023-03-28T00:54:28.983Z,3.30
2023-03-28T00:56:58.290Z,3.15
2023-03-28T00:59:27.491Z,2.92
2023-03-28T01:01:56.099Z,3.80
2023-03-28T01:04:24.981Z,3.97
2023-03-28T01:06:54.650Z,3.90
2023-03-28T01:09:24.435Z,4.45
2023-03-28T01:11:52.944Z,3.45
2023-03-28T01:14:21.628Z,3.53
2023-03-28T01:16:49.266Z,3.50
2023-03-28T01:19:26.502Z,4.30
2023-03-28T01:22:06.735Z,3.95
2023-03-28T01:24:52.075Z,4.25
2023-03-28T01:27:24.739Z,3.67
2023-03-28T01:30:04.096Z,3.47
2023-03-28T01:32:49.158Z,4.00
2023-03-28T01:35:24.042Z,3.85
2023-03-28T01:37:56.477Z,3.60
2023-03-28T01:40:30.210Z,3.90
2023-03-28T01:43:05.130Z,3.90
2023-03-28T01:45:35.885Z,3.85
2023-03-28T01:48:06.111Z,2.92
2023-03-28T01:50:38.634Z,3.38
2023-03-28T01:53:09.714Z,3.60
2023-03-28T01:55:41.771Z,3.47
2023-03-28T01:58:14.121Z,3.97
2023-03-28T02:00:43.286Z,3.42
2023-03-28T02:03:14.376Z,4.43
2023-03-28T02:05:42.591Z,3.70
2023-03-28T02:08:11.477Z,3.95
2023-03-28T02:10:41.059Z,3.22
2023-03-28T02:13:10.176Z,2.83
2023-03-28T02:15:37.484Z,4.10
2023-03-28T02:18:08.245Z,3.38
2023-03-28T02:20:37.065Z,3.30
2023-03-28T02:23:07.575Z,3.63
2023-03-28T02:25:36.406Z,3.35
2023-03-28T02:28:05.635Z,3.25
2023-03-28T02:30:33.256Z,3.63
2023-03-28T02:33:00.975Z,3.58
2023-03-28T02:35:31.028Z,3.30
2023-03-28T02:38:04.064Z,3.08
2023-03-28T02:40:36.772Z,3.10
2023-03-28T02:43:18.458Z,3.47
2023-03-28T02:45:57.916Z,2.95
2023-03-28T02:48:36.484Z,3.30
2023-03-28T02:51:06.114Z,3.55
2023-03-28T02:53:35.208Z,3.30
2023-03-28T02:56:06.292Z,3.10
2023-03-28T02:58:38.411Z,5.05
2023-03-28T03:01:06.701Z,3.58
2023-03-28T03:03:35.591Z,3.67
2023-03-28T03:06:04.019Z,3.33
2023-03-28T03:08:31.950Z,4.68
2023-03-28T03:10:59.269Z,3.90
2023-03-28T03:13:26.636Z,4.57
2023-03-28T03:15:55.995Z,3.78
2023-03-28T03:18:23.499Z,3.65
2023-03-28T03:20:51.128Z,3.63
2023-03-28T03:23:18.492Z,2.78
2023-03-28T03:25:46.047Z,4.03
2023-03-28T03:28:13.900Z,3.38
2023-03-28T03:30:41.215Z,3.70
2023-03-28T03:33:10.539Z,3.65
2023-03-28T03:35:38.042Z,4.03
2023-03-28T03:38:05.529Z,3.88
2023-03-28T03:40:32.818Z,3.88
2023-03-28T03:43:00.155Z,3.47
2023-03-28T03:45:27.467Z,5.55
2023-03-28T03:47:54.770Z,3.97
2023-03-28T03:50:23.476Z,4.38
2023-03-28T03:52:50.798Z,3.95
2023-03-28T03:55:18.209Z,4.60
2023-03-28T03:57:45.793Z,3.95
2023-03-28T04:00:13.805Z,3.95
2023-03-28T04:02:41.431Z,4.82
2023-03-28T04:05:09.211Z,5.13
2023-03-28T04:07:37.891Z,4.15
2023-03-28T04:10:05.854Z,4.32
2023-03-28T04:12:33.147Z,4.95
2023-03-28T04:15:00.442Z,4.10
2023-03-28T04:17:29.766Z,4.57
2023-03-28T04:19:57.465Z,5.28
2023-03-28T04:22:29.804Z,4.93
2023-03-28T04:24:58.586Z,4.85
2023-03-28T04:27:26.136Z,4.68
2023-03-28T04:29:54.407Z,4.65
2023-03-28T04:32:21.827Z,4.72
2023-03-28T04:34:50.809Z,4.82
2023-03-28T04:37:18.590Z,5.40
2023-03-28T04:39:47.224Z,4.82
2023-03-28T04:42:16.291Z,5.95
2023-03-28T04:44:43.649Z,5.10
2023-03-28T04:47:11.726Z,5.18
2023-03-28T04:49:39.366Z,4.72
2023-03-28T04:52:06.786Z,4.50
2023-03-28T04:54:34.116Z,5.65
2023-03-28T04:57:02.361Z,5.03
2023-03-28T04:59:31.087Z,5.72
2023-03-28T05:01:58.606Z,4.22
2023-03-28T05:04:26.604Z,4.43
2023-03-28T05:06:53.912Z,5.07
2023-03-28T05:09:22.513Z,5.28
2023-03-28T05:11:50.166Z,5.60
2023-03-28T05:14:17.545Z,5.20
2023-03-28T05:16:46.313Z,5.03
2023-03-28T05:19:13.829Z,5.57
2023-03-28T05:21:41.617Z,5.35
2023-03-28T05:24:09.617Z,6.22
2023-03-28T05:26:37.531Z,5.10
2023-03-28T05:29:04.851Z,5.63
2023-03-28T05:31:32.154Z,6.28
2023-03-28T05:34:00.838Z,5.70
2023-03-28T05:36:28.810Z,6.22
2023-03-28T05:38:56.088Z,5.30
2023-03-28T05:41:23.388Z,5.22
2023-03-28T05:43:50.679Z,5.00
2023-03-28T05:46:18.061Z,4.95
2023-03-28T05:48:49.817Z,4.93
2023-03-28T05:51:18.775Z,4.97
2023-03-28T05:53:46.095Z,4.93
2023-03-28T05:56:13.388Z,6.40
2023-03-28T05:58:41.567Z,5.10
2023-03-28T06:01:09.499Z,4.97
2023-03-28T06:03:40.279Z,5.13
2023-03-28T06:06:08.235Z,4.93
2023-03-28T06:08:37.110Z,4.13
2023-03-28T06:11:18.361Z,4.90
2023-03-28T06:13:45.792Z,4.85
2023-03-28T06:16:13.099Z,4.53
2023-03-28T06:18:40.432Z,4.97
2023-03-28T06:21:07.984Z,4.90
2023-03-28T06:23:36.701Z,4.82
2023-03-28T06:26:04.943Z,3.70
2023-03-28T06:28:32.235Z,3.88
2023-03-28T06:30:59.716Z,4.28
2023-03-28T06:33:27.242Z,4.65
2023-03-28T06:35:57.242Z,4.50
2023-03-28T06:38:24.647Z,4.90
2023-03-28T06:40:53.401Z,4.30
2023-03-28T06:43:20.896Z,5.07
2023-03-28T06:45:48.206Z,5.18
2023-03-28T06:48:15.517Z,5.03
2023-03-28T06:50:49.952Z,5.10
2023-03-28T06:53:17.567Z,4.50
2023-03-28T06:55:44.994Z,4.78
2023-03-28T06:58:13.615Z,4.55
2023-03-28T07:00:41.163Z,4.28
2023-03-28T07:03:08.590Z,4.43
2023-03-28T07:05:38.635Z,4.18
2023-03-28T07:08:06.351Z,5.20
2023-03-28T07:10:33.678Z,4.20
2023-03-28T07:13:00.974Z,4.25
2023-03-28T07:15:29.734Z,4.40
2023-03-28T07:17:57.256Z,4.28
2023-03-28T07:20:24.973Z,4.32
2023-03-28T07:22:52.499Z,3.88
2023-03-28T07:25:20.170Z,3.80
2023-03-28T07:27:47.470Z,4.38
2023-03-28T07:30:15.398Z,3.83
2023-03-28T07:32:53.364Z,4.07
2023-03-28T07:35:27.304Z,3.17
2023-03-28T07:37:54.591Z,4.13
2023-03-28T07:40:21.876Z,4.10
2023-03-28T07:42:49.509Z,4.57
2023-03-28T07:45:16.945Z,4.28
2023-03-28T07:47:45.742Z,4.40
2023-03-28T07:50:13.157Z,3.75
2023-03-28T07:52:45.288Z,4.30
2023-03-28T07:55:13.354Z,4.00
2023-03-28T07:57:40.945Z,4.07
2023-03-28T08:00:11.254Z,4.10
2023-03-28T08:02:38.658Z,4.00
2023-03-28T08:05:07.709Z,4.20
2023-03-28T08:07:35.303Z,3.63
2023-03-28T08:10:02.955Z,3.20
2023-03-28T08:12:30.701Z,4.05
2023-03-28T08:14:58.011Z,3.63
2023-03-28T08:17:26.422Z,3.10
2023-03-28T08:19:53.761Z,3.38
2023-03-28T08:22:22.425Z,2.42
2023-03-28T08:24:49.800Z,3.30
2023-03-28T08:27:17.070Z,2.55
2023-03-28T08:29:44.399Z,3.72
2023-03-28T08:32:11.758Z,3.38
2023-03-28T08:34:40.360Z,3.10
2023-03-28T08:37:08.237Z,2.22
2023-03-28T08:39:37.380Z,2.22
2023-03-28T08:42:17.177Z,2.47
2023-03-28T08:44:52.350Z,2.47
2023-03-28T08:47:20.672Z,2.10
2023-03-28T08:49:49.722Z,1.83
2023-03-28T08:52:18.978Z,1.60
2023-03-28T08:54:50.232Z,0.88
2023-03-28T08:57:20.213Z,2.42
2023-03-28T08:59:51.428Z,1.83
2023-03-28T09:02:19.720Z,1.20
2023-03-28T09:04:47.225Z,1.23
2023-03-28T09:07:17.264Z,1.38
2023-03-28T09:09:48.997Z,1.42
2023-03-28T09:12:24.276Z,1.40
2023-03-28T09:15:12.167Z,1.88
2023-03-28T09:17:44.222Z,2.13
2023-03-28T09:20:17.637Z,2.75
2023-03-28T09:22:53.106Z,1.92
2023-03-28T09:25:27.142Z,1.63
2023-03-28T09:28:00.649Z,1.70
2023-03-28T09:30:29.725Z,1.40
2023-03-28T09:32:58.778Z,1.70
2023-03-28T09:35:26.820Z,1.27
2023-03-28T09:37:54.770Z,1.23
2023-03-28T09:40:23.858Z,1.80
2023-03-28T09:42:55.090Z,1.42
2023-03-28T09:45:30.171Z,1.30
2023-03-28T09:47:57.958Z,1.70
2023-03-28T09:50:25.463Z,1.90
2023-03-28T09:52:52.853Z,1.35
2023-03-28T09:55:21.579Z,1.98
2023-03-28T09:58:05.738Z,1.40
2023-03-28T10:00:38.774Z,1.30
2023-03-28T10:03:08.091Z,1.10
2023-03-28T10:05:37.037Z,0.90
2023-03-28T10:08:05.301Z,1.17
2023-03-28T10:10:32.600Z,1.40
2023-03-28T10:13:02.502Z,1.50
2023-03-28T10:15:31.395Z,1.85
2023-03-28T10:18:01.924Z,1.75
2023-03-28T10:20:33.435Z,1.65
2023-03-28T10:23:02.673Z,1.23
2023-03-28T10:25:36.324Z,1.48
2023-03-28T10:28:04.598Z,1.23
2023-03-28T10:30:32.721Z,1.67
2023-03-28T10:33:21.872Z,1.23
2023-03-28T10:35:54.798Z,1.33
2023-03-28T10:38:22.522Z,1.20
2023-03-28T10:40:52.064Z,1.42
2023-03-28T10:43:19.448Z,1.40
2023-03-28T10:45:50.786Z,1.45
2023-03-28T10:48:21.072Z,1.50
2023-03-28T10:50:49.755Z,1.40
2023-03-28T10:53:27.069Z,1.50
2023-03-28T10:56:01.386Z,0.95
2023-03-28T10:58:31.803Z,1.50
2023-03-28T11:01:02.274Z,1.30
2023-03-28T11:03:41.239Z,1.25
2023-03-28T11:06:11.118Z,1.50
2023-03-28T11:08:43.989Z,1.48
2023-03-28T11:11:22.010Z,1.08
2023-03-28T11:13:54.639Z,1.02
2023-03-28T11:16:25.810Z,1.20
2023-03-28T11:19:01.376Z,1.80
2023-03-28T11:21:30.422Z,1.73
2023-03-28T11:24:03.271Z,1.40
2023-03-28T11:26:39.851Z,1.40
2023-03-28T11:29:16.661Z,1.25
2023-03-28T11:31:47.464Z,1.33
2023-03-28T11:34:21.666Z,1.27
2023-03-28T11:36:53.297Z,1.35
2023-03-28T11:39:24.856Z,1.48
2023-03-28T11:41:52.590Z,1.60
2023-03-28T11:44:22.973Z,2.08
2023-03-28T11:46:52.027Z,1.30
2023-03-28T11:49:23.194Z,1.73
2023-03-28T11:51:54.646Z,1.48
2023-03-28T11:54:25.709Z,1.73
2023-03-28T11:56:56.000Z,1.85
2023-03-28T11:59:26.562Z,1.65
2023-03-28T12:01:57.364Z,1.90
2023-03-28T12:04:28.885Z,1.70
2023-03-28T12:07:04.205Z,1.55
2023-03-28T12:09:35.396Z,1.38
2023-03-28T12:12:04.293Z,1.92
2023-03-28T12:14:35.876Z,1.95
2023-03-28T12:17:05.239Z,1.58
2023-03-28T12:19:37.535Z,1.70
2023-03-28T12:22:09.177Z,1.60
2023-03-28T12:24:40.490Z,1.75
2023-03-28T12:27:12.655Z,1.38
2023-03-28T12:29:41.425Z,1.60
2023-03-28T12:32:25.749Z,1.30
2023-03-28T12:34:58.601Z,1.40
2023-03-28T12:37:29.780Z,1.70
2023-03-28T12:40:00.217Z,1.80
2023-03-28T12:42:28.388Z,1.65
2023-03-28T12:44:59.388Z,1.50
2023-03-28T12:47:28.158Z,1.60
2023-03-28T12:49:57.881Z,1.45
2023-03-28T12:52:26.713Z,1.70
2023-03-28T12:54:55.001Z,1.40
2023-03-28T12:57:37.256Z,1.70
2023-03-28T13:00:13.564Z,1.40
2023-03-28T13:02:46.113Z,1.85
2023-03-28T13:05:20.748Z,1.67
2023-03-28T13:07:56.496Z,1.67
2023-03-28T13:10:27.871Z,2.10
2023-03-28T13:13:02.648Z,1.60
2023-03-28T13:18:15.667Z,1.90
2023-03-28T13:20:46.960Z,1.50
2023-03-28T13:23:15.201Z,2.13
2023-03-28T13:25:43.290Z,1.83
2023-03-28T13:28:28.985Z,2.08
2023-03-28T13:31:07.520Z,1.95
2023-03-28T13:33:36.693Z,2.20
2023-03-28T13:36:22.525Z,1.83
2023-03-28T13:38:50.838Z,2.03
2023-03-28T13:41:34.946Z,2.22
2023-03-28T13:44:04.155Z,2.35
2023-03-28T13:46:32.837Z,1.80
2023-03-28T13:49:02.343Z,1.80
2023-03-28T13:51:32.290Z,1.92
2023-03-28T13:53:59.674Z,2.22
2023-03-28T13:56:30.083Z,2.08
2023-03-28T13:58:58.606Z,1.90
2023-03-28T14:01:27.127Z,2.33
2023-03-28T14:03:55.632Z,1.52
2023-03-28T14:06:23.975Z,2.00
2023-03-28T14:08:53.492Z,2.10
2023-03-28T14:11:23.076Z,1.77
2023-03-28T14:13:51.675Z,2.15
2023-03-28T14:16:20.550Z,1.60
2023-03-28T14:18:48.964Z,1.58
2023-03-28T14:21:16.791Z,1.73
2023-03-28T14:23:54.365Z,2.00
2023-03-28T14:26:23.473Z,1.92
2023-03-28T14:28:51.878Z,1.75
2023-03-28T14:31:28.919Z,1.88
2023-03-28T14:33:58.355Z,2.15
2023-03-28T14:36:30.701Z,1.65
2023-03-28T14:39:12.535Z,1.77
2023-03-28T14:41:43.679Z,1.75
2023-03-28T14:44:13.454Z,1.40
2023-03-28T14:46:41.240Z,1.88
2023-03-28T14:49:10.117Z,1.80
2023-03-28T14:51:41.093Z,2.17
2023-03-28T14:54:14.187Z,2.03
2023-03-28T14:56:43.297Z,2.70
2023-03-28T14:59:12.292Z,1.92
2023-03-28T15:01:39.642Z,1.80
2023-03-28T15:04:08.043Z,1.80
2023-03-28T15:06:36.357Z,1.58
2023-03-28T15:09:10.093Z,2.53
2023-03-28T15:11:38.458Z,1.73
2023-03-28T15:14:08.775Z,2.25
2023-03-28T15:16:37.734Z,2.00
2023-03-28T15:19:06.881Z,2.10
2023-03-28T15:21:34.800Z,2.20
2023-03-28T15:24:04.589Z,2.00
2023-03-28T15:26:35.059Z,2.28
2023-03-28T15:29:03.064Z,2.08
2023-03-28T15:31:32.363Z,1.95
2023-03-28T15:34:00.033Z,2.08
2023-03-28T15:36:32.048Z,1.98
2023-03-28T15:39:00.941Z,2.20
2023-03-28T15:41:41.588Z,2.20
2023-03-28T15:44:22.259Z,2.05
2023-03-28T15:46:53.351Z,1.80
2023-03-28T15:49:20.892Z,2.15
2023-03-28T15:51:50.407Z,1.90
2023-03-28T15:54:30.242Z,1.60
2023-03-28T15:57:00.458Z,2.40
2023-03-28T15:59:30.557Z,2.00
2023-03-28T16:02:16.327Z,2.00
2023-03-28T16:04:59.517Z,1.73
2023-03-28T16:07:27.632Z,1.83
2023-03-28T16:09:54.918Z,1.90
2023-03-28T16:12:22.590Z,1.98
2023-03-28T16:14:52.025Z,2.22
2023-03-28T16:17:23.883Z,2.30
2023-03-28T16:19:53.004Z,2.30
2023-03-28T16:22:21.270Z,2.10
2023-03-28T16:24:48.630Z,2.05
2023-03-28T16:27:15.940Z,2.15
2023-03-28T16:29:43.348Z,2.28
2023-03-28T16:32:11.563Z,1.90
2023-03-28T16:34:39.096Z,1.80
2023-03-28T16:37:08.844Z,1.70
2023-03-28T16:39:37.326Z,2.15
2023-03-28T16:42:04.746Z,2.28
2023-03-28T16:44:32.570Z,2.00
2023-03-28T16:47:00.064Z,2.20
2023-03-28T16:49:27.724Z,2.60
2023-03-28T16:51:55.630Z,1.42
2023-03-28T16:54:24.820Z,2.30
2023-03-28T16:56:52.292Z,1.77
2023-03-28T16:59:20.531Z,1.75
2023-03-28T17:01:48.599Z,1.92
2023-03-28T17:04:16.076Z,2.28
2023-03-28T17:06:43.426Z,2.50
2023-03-28T17:09:11.251Z,2.50
2023-03-28T17:11:42.636Z,2.28
2023-03-28T17:14:10.252Z,2.17
2023-03-28T17:16:40.248Z,1.75
2023-03-28T17:19:07.645Z,2.15
2023-03-28T17:21:35.757Z,1.83
2023-03-28T17:24:03.569Z,2.15
2023-03-28T17:26:31.634Z,2.13
2023-03-28T17:29:00.406Z,2.35
2023-03-28T17:31:27.900Z,2.25
2023-03-28T17:33:55.489Z,2.28
2023-03-28T17:36:24.470Z,2.20
2023-03-28T17:38:52.411Z,2.60
2023-03-28T17:41:22.877Z,2.58
2023-03-28T17:43:50.517Z,2.20
2023-03-28T17:46:19.201Z,2.78
2023-03-28T17:48:46.745Z,2.05
2023-03-28T17:51:15.158Z,1.95
2023-03-28T17:53:43.112Z,2.20
2023-03-28T17:56:11.126Z,1.73
2023-03-28T17:58:38.686Z,2.20
2023-03-28T18:01:09.443Z,1.73
2023-03-28T18:03:38.847Z,2.25
2023-03-28T18:06:07.702Z,2.58
2023-03-28T18:08:35.286Z,2.47
2023-03-28T18:11:02.829Z,2.50
2023-03-28T18:13:30.298Z,2.70
2023-03-28T18:15:57.705Z,2.70
2023-03-28T18:18:25.117Z,2.50
2023-03-28T18:20:54.074Z,2.60
2023-03-28T18:23:21.941Z,2.50
2023-03-28T18:25:51.268Z,2.25
2023-03-28T18:28:21.900Z,2.60
2023-03-28T18:30:49.199Z,2.53
2023-03-28T18:33:17.110Z,3.28
2023-03-28T18:35:46.110Z,2.47
2023-03-28T18:38:15.347Z,2.03
2023-03-28T18:40:42.834Z,1.63
2023-03-28T18:43:10.611Z,2.40
2023-03-28T18:45:37.953Z,1.55
2023-03-28T18:48:05.917Z,2.30
2023-03-28T18:50:33.311Z,3.17
2023-03-28T18:53:00.615Z,1.58
2023-03-28T18:55:29.278Z,1.77
2023-03-28T18:57:56.924Z,1.75
2023-03-28T19:00:24.384Z,1.45
2023-03-28T19:02:51.765Z,2.00
2023-03-28T19:05:19.481Z,2.22
2023-03-28T19:07:48.380Z,2.35
2023-03-28T19:10:15.801Z,2.20
2023-03-28T19:12:45.498Z,2.30
2023-03-28T19:15:12.906Z,2.85
2023-03-28T19:17:40.789Z,2.05
2023-03-28T19:20:12.486Z,2.58
2023-03-28T19:22:39.829Z,2.05
2023-03-28T19:25:08.033Z,1.38
2023-03-28T19:27:35.706Z,2.20
2023-03-28T19:30:04.735Z,1.88
2023-03-28T19:32:32.650Z,2.50
2023-03-28T19:35:00.195Z,2.40
2023-03-28T19:37:27.559Z,1.98
2023-03-28T19:39:58.503Z,2.72
2023-03-28T19:42:26.151Z,2.63
2023-03-28T19:44:53.461Z,2.47
2023-03-28T19:47:22.172Z,3.03
2023-03-28T19:49:50.078Z,2.60
2023-03-28T19:52:17.365Z,3.45
2023-03-28T19:54:44.735Z,2.90
2023-03-28T19:57:13.471Z,3.13
2023-03-28T19:59:40.817Z,3.55
2023-03-28T20:02:08.273Z,2.78
2023-03-28T20:04:36.988Z,3.47
2023-03-28T20:07:04.337Z,3.22
2023-03-28T20:09:33.680Z,3.20
2023-03-28T20:12:02.594Z,3.08
2023-03-28T20:14:29.860Z,3.88
2023-03-28T20:16:57.174Z,3.85
2023-03-28T20:19:24.901Z,4.20
2023-03-28T20:21:53.506Z,3.67
2023-03-28T20:24:20.866Z,3.20
2023-03-28T20:26:48.172Z,3.20
2023-03-28T20:29:15.644Z,3.58
2023-03-28T20:31:42.995Z,4.63
2023-03-28T20:34:10.361Z,4.60
2023-03-28T20:36:38.092Z,3.63
2023-03-28T20:39:06.851Z,4.03
2023-03-28T20:41:34.178Z,3.75
2023-03-28T20:44:04.061Z,4.15
2023-03-28T20:46:32.762Z,4.57
2023-03-28T20:49:00.216Z,4.18
2023-03-28T20:51:29.497Z,5.10
2023-03-28T20:53:58.431Z,5.15
2023-03-28T20:56:28.842Z,5.57
2023-03-28T20:58:58.095Z,4.97
2023-03-28T21:01:26.456Z,5.15
2023-03-28T21:03:55.158Z,4.78
2023-03-28T21:06:24.645Z,4.43
2023-03-28T21:08:53.696Z,4.90
2023-03-28T21:11:22.056Z,5.07
2023-03-28T21:13:50.706Z,5.95
2023-03-28T21:16:18.161Z,7.15
2023-03-28T21:18:46.638Z,7.38
2023-03-28T21:21:14.243Z,7.65
2023-03-28T21:23:42.076Z,7.10
2023-03-28T21:26:10.996Z,6.10
2023-03-28T21:28:38.498Z,5.35
2023-03-28T21:31:08.868Z,5.85
2023-03-28T21:33:37.429Z,5.25
2023-03-28T21:36:06.469Z,6.18
2023-03-28T21:38:34.046Z,5.97
2023-03-28T21:41:01.860Z,5.95
2023-03-28T21:43:29.435Z,5.78
2023-03-28T21:45:56.917Z,6.30
2023-03-28T21:48:25.991Z,6.05
2023-03-28T21:50:54.104Z,6.60
2023-03-28T21:53:22.012Z,6.10
2023-03-28T21:55:49.343Z,7.10
2023-03-28T21:58:16.760Z,7.00
2023-03-28T22:00:44.435Z,6.57
2023-03-28T22:03:11.767Z,7.07
2023-03-28T22:05:42.898Z,6.53
2023-03-28T22:08:11.896Z,6.20
2023-03-28T22:10:43.937Z,6.40
2023-03-28T22:13:11.857Z,6.63
2023-03-28T22:15:39.154Z,5.43
2023-03-28T22:18:09.002Z,4.95
2023-03-28T22:20:37.400Z,4.72
2023-03-28T22:23:06.417Z,3.80
2023-03-28T22:25:38.533Z,4.53
2023-03-28T22:28:07.097Z,4.85
2023-03-28T22:30:35.015Z,4.20
2023-03-28T22:33:03.686Z,4.80
2023-03-28T22:35:31.255Z,5.03
2023-03-28T22:37:58.811Z,4.50
2023-03-28T22:40:27.758Z,4.70
2023-03-28T22:42:55.121Z,4.80
2023-03-28T22:45:22.516Z,5.03
2023-03-28T22:47:50.115Z,4.82
2023-03-28T22:50:18.324Z,5.13
2023-03-28T22:52:45.963Z,5.00
2023-03-28T22:55:13.800Z,4.57
2023-03-28T22:57:42.790Z,5.15
2023-03-28T23:00:10.855Z,5.43
2023-03-28T23:02:38.472Z,4.28
2023-03-28T23:05:06.645Z,4.53
2023-03-28T23:07:35.847Z,5.20
2023-03-28T23:10:03.523Z,4.70
2023-03-28T23:12:30.817Z,4.88
2023-03-28T23:15:00.465Z,5.90
2023-03-28T23:17:28.283Z,5.82
2023-03-28T23:19:55.672Z,5.50
2023-03-28T23:22:23.521Z,6.55
2023-03-28T23:24:51.449Z,5.70
2023-03-28T23:27:18.802Z,6.30
2023-03-28T23:29:46.511Z,6.10
2023-03-28T23:32:15.268Z,5.45
2023-03-28T23:34:43.329Z,5.88
2023-03-28T23:37:10.850Z,5.68
2023-03-28T23:39:39.222Z,5.45
2023-03-28T23:42:06.817Z,5.70
2023-03-28T23:44:34.098Z,5.65
2023-03-28T23:47:01.446Z,5.22
2023-03-28T23:49:30.168Z,5.13
2023-03-28T23:51:57.478Z,5.43
2023-03-28T23:54:25.726Z,5.80
2023-03-28T23:56:53.082Z,5.15
2023-03-28T23:59:20.406Z,4.68
